Time;durP1;ratioP1;P1;durP2;ratioP2;P2;SDS_P1;SDS_P2;PMS_P1;PMS_P2;Temp;Humidity;BMP_temperature;BMP_pressure;BME280_temperature;BME280_humidity;BME280_pressure;Samples;Min_cycle;Max_cycle;Signal;HPM_P1;HPM_P2
2022/01/01 00:00:15;;;;;;;29.67;19.67;;;15.00;99.90;;;;;;2091581;28;20033;-72
2022/01/01 00:01:15;;;;;;;28.52;20.20;;;15.00;99.90;;;;;;2084698;28;20034;-72
2022/01/01 00:02:17;;;;;;;29.55;21.85;;;14.90;99.90;;;;;;2085234;28;20051;-72
2022/01/01 00:03:17;;;;;;;29.65;21.98;;;15.00;99.90;;;;;;2081540;28;20048;-72
2022/01/01 00:04:18;;;;;;;27.80;20.25;;;15.00;99.90;;;;;;2094344;28;20035;-72
2022/01/01 00:05:19;;;;;;;26.70;19.67;;;14.90;99.90;;;;;;2089580;28;20101;-72
2022/01/01 00:06:19;;;;;;;28.98;19.15;;;15.00;99.90;;;;;;2081708;28;20164;-72
2022/01/01 00:07:20;;;;;;;27.77;19.10;;;14.90;99.90;;;;;;2086992;28;20049;-72
2022/01/01 00:08:20;;;;;;;28.33;20.05;;;15.00;99.90;;;;;;2086636;28;20025;-72
2022/01/01 00:09:22;;;;;;;33.05;19.88;;;14.90;99.90;;;;;;2088759;28;20060;-72
2022/01/01 00:10:22;;;;;;;26.38;19.38;;;15.00;99.90;;;;;;2089754;28;20473;-72
2022/01/01 00:11:23;;;;;;;31.75;20.17;;;15.00;99.90;;;;;;2090032;28;20393;-72
2022/01/01 00:12:23;;;;;;;29.42;21.52;;;15.00;99.90;;;;;;2089938;28;20025;-72
2022/01/01 00:13:24;;;;;;;29.55;20.02;;;15.00;99.90;;;;;;2090433;28;20497;-72
2022/01/01 00:14:24;;;;;;;31.08;18.95;;;15.00;99.90;;;;;;2090409;28;20025;-72
2022/01/01 00:15:25;;;;;;;32.03;18.67;;;15.00;99.90;;;;;;2089981;28;20116;-72
2022/01/01 00:16:26;;;;;;;31.48;18.20;;;15.00;99.90;;;;;;2090111;28;20037;-72
2022/01/01 00:17:26;;;;;;;27.90;19.35;;;15.00;99.90;;;;;;2090093;28;20083;-71
2022/01/01 00:18:27;;;;;;;25.10;17.25;;;15.00;99.90;;;;;;2083682;28;20025;-72
2022/01/01 00:19:28;;;;;;;26.58;18.13;;;14.90;99.90;;;;;;2081317;28;20440;-72
2022/01/01 00:20:28;;;;;;;24.23;16.77;;;15.00;99.90;;;;;;2082336;28;20021;-72
2022/01/01 00:21:29;;;;;;;28.05;16.40;;;15.00;99.90;;;;;;2090219;28;20032;-72
2022/01/01 00:22:29;;;;;;;24.40;16.67;;;15.00;99.90;;;;;;2090035;28;20061;-72
2022/01/01 00:23:30;;;;;;;23.15;15.32;;;15.00;99.90;;;;;;2090041;28;20403;-72
2022/01/01 00:24:31;;;;;;;24.63;15.93;;;15.00;99.90;;;;;;2090146;28;20024;-72
2022/01/01 00:25:31;;;;;;;21.42;15.43;;;15.00;99.90;;;;;;2097587;28;20040;-72
2022/01/01 00:26:32;;;;;;;23.42;15.60;;;15.00;99.90;;;;;;2097815;28;20492;-72
2022/01/01 00:27:33;;;;;;;21.35;15.43;;;15.00;99.90;;;;;;2089796;28;20499;-72
2022/01/01 00:28:33;;;;;;;21.42;14.80;;;15.00;99.90;;;;;;2090199;28;20017;-72
2022/01/01 00:29:34;;;;;;;26.35;16.17;;;15.00;99.90;;;;;;2083580;28;20027;-72
2022/01/01 00:30:34;;;;;;;22.67;15.60;;;15.00;99.90;;;;;;2085084;28;20359;-72
2022/01/01 00:31:35;;;;;;;22.02;15.13;;;15.00;99.90;;;;;;2084211;28;20032;-72
2022/01/01 00:32:37;;;;;;;25.40;15.48;;;15.00;99.90;;;;;;2089379;28;20128;-72
2022/01/01 00:33:37;;;;;;;24.02;14.52;;;15.00;99.90;;;;;;2086275;28;20089;-72
2022/01/01 00:34:38;;;;;;;22.13;14.98;;;15.00;99.90;;;;;;2082144;28;20079;-72
2022/01/01 00:35:40;;;;;;;20.52;13.00;;;15.00;99.90;;;;;;2081725;28;20041;-72
2022/01/01 00:36:41;;;;;;;20.30;14.27;;;15.00;99.90;;;;;;2081723;28;20020;-72
2022/01/01 00:37:41;;;;;;;22.30;13.38;;;15.00;99.90;;;;;;2081515;28;20048;-72
2022/01/01 00:38:42;;;;;;;22.67;13.98;;;15.00;99.90;;;;;;2081956;28;20024;-72
2022/01/01 00:39:43;;;;;;;22.15;13.65;;;15.00;99.90;;;;;;2081126;28;20030;-72
2022/01/01 00:40:44;;;;;;;26.60;14.45;;;15.00;99.90;;;;;;2082082;28;20018;-72
2022/01/01 00:41:45;;;;;;;22.73;14.13;;;15.00;99.90;;;;;;2080796;28;20068;-72
2022/01/01 00:42:46;;;;;;;25.38;15.18;;;15.00;99.90;;;;;;2083252;28;20021;-72
2022/01/01 00:43:46;;;;;;;23.33;14.43;;;15.00;99.90;;;;;;2080233;28;20029;-72
2022/01/01 00:44:47;;;;;;;23.38;15.00;;;15.00;99.90;;;;;;2080278;28;20025;-72
2022/01/01 00:45:47;;;;;;;23.08;14.13;;;15.00;99.90;;;;;;2080297;28;20059;-72
2022/01/01 00:46:48;;;;;;;27.33;14.95;;;15.00;99.90;;;;;;2082081;28;20044;-73
2022/01/01 00:47:49;;;;;;;22.38;14.40;;;15.00;99.90;;;;;;2081828;28;20025;-72
2022/01/01 00:48:53;;;;;;;22.50;14.43;;;15.00;99.90;;;;;;2081572;28;20030;-72
2022/01/01 00:49:54;;;;;;;23.42;13.95;;;15.00;99.90;;;;;;2084961;28;20051;-73
2022/01/01 00:50:56;;;;;;;20.23;13.23;;;14.90;99.90;;;;;;2086849;28;20020;-72
2022/01/01 00:51:57;;;;;;;23.73;14.45;;;14.90;99.90;;;;;;2090283;28;20025;-72
2022/01/01 00:52:59;;;;;;;24.67;13.90;;;15.00;99.90;;;;;;2089507;28;20100;-72
2022/01/01 00:53:59;;;;;;;21.33;14.10;;;15.00;99.90;;;;;;2084507;28;20041;-74
2022/01/01 00:55:00;;;;;;;22.42;12.98;;;15.00;99.90;;;;;;2089726;28;20104;-72
2022/01/01 00:56:01;;;;;;;25.90;14.15;;;14.90;99.90;;;;;;2082241;28;20223;-72
2022/01/01 00:57:01;;;;;;;18.27;12.27;;;15.00;99.90;;;;;;2088554;28;20048;-72
2022/01/01 00:58:03;;;;;;;20.48;13.60;;;14.90;99.90;;;;;;2077169;28;20465;-72
2022/01/01 00:59:04;;;;;;;24.48;13.02;;;15.00;99.90;;;;;;2079302;28;20079;-72
2022/01/01 01:00:05;;;;;;;21.90;12.70;;;14.90;99.90;;;;;;2086693;28;20037;-72
2022/01/01 01:01:06;;;;;;;21.60;11.95;;;15.00;99.90;;;;;;2071995;28;20034;-72
2022/01/01 01:02:10;;;;;;;21.25;12.38;;;15.00;99.90;;;;;;2081801;28;20032;-72
2022/01/01 01:03:12;;;;;;;21.35;12.35;;;14.90;99.90;;;;;;2080148;28;20025;-72
2022/01/01 01:04:12;;;;;;;19.50;12.35;;;14.90;99.90;;;;;;2092991;28;20489;-72
2022/01/01 01:05:13;;;;;;;19.13;13.43;;;14.90;99.90;;;;;;2088517;28;20449;-72
2022/01/01 01:06:14;;;;;;;20.17;12.00;;;14.90;99.90;;;;;;2081923;28;20022;-72
2022/01/01 01:07:15;;;;;;;20.00;12.27;;;14.90;99.90;;;;;;2085596;28;20033;-72
2022/01/01 01:08:16;;;;;;;20.52;11.35;;;14.90;99.90;;;;;;2089520;28;20761;-71
2022/01/01 01:09:17;;;;;;;21.67;12.32;;;14.90;99.90;;;;;;2089281;28;20025;-72
2022/01/01 01:10:18;;;;;;;23.08;12.88;;;14.90;99.90;;;;;;2087975;28;20520;-72
2022/01/01 01:11:19;;;;;;;18.23;10.80;;;14.90;99.90;;;;;;2089854;28;20055;-72
2022/01/01 01:12:24;;;;;;;19.45;11.75;;;15.00;99.90;;;;;;2089991;28;20095;-72
2022/01/01 01:13:28;;;;;;;23.23;12.30;;;14.90;99.90;;;;;;2089987;28;20377;-72
2022/01/01 01:14:31;;;;;;;22.08;11.77;;;14.90;99.90;;;;;;2090655;28;20052;-72
2022/01/01 01:15:32;;;;;;;23.27;11.88;;;14.90;99.90;;;;;;2092058;28;20372;-72
2022/01/01 01:16:32;;;;;;;19.45;11.25;;;14.90;99.90;;;;;;2087244;28;20045;-72
2022/01/01 01:17:33;;;;;;;24.80;11.80;;;14.90;99.90;;;;;;2084504;28;20021;-72
2022/01/01 01:18:34;;;;;;;21.60;11.32;;;14.90;99.90;;;;;;2081835;28;20044;-72
2022/01/01 01:19:34;;;;;;;21.02;12.15;;;14.90;99.90;;;;;;2081439;28;20022;-72
2022/01/01 01:20:35;;;;;;;19.67;11.52;;;14.90;99.90;;;;;;2084128;28;20367;-72
2022/01/01 01:21:36;;;;;;;21.60;11.85;;;14.90;99.90;;;;;;2088276;28;20028;-72
2022/01/01 01:22:36;;;;;;;22.15;11.40;;;14.90;99.90;;;;;;2085700;28;20066;-71
2022/01/01 01:23:37;;;;;;;23.77;11.90;;;14.90;99.90;;;;;;2082101;28;20084;-72
2022/01/01 01:24:39;;;;;;;21.10;12.50;;;14.90;99.90;;;;;;2081526;28;20109;-72
2022/01/01 01:25:41;;;;;;;21.30;11.77;;;14.90;99.90;;;;;;2085186;28;20490;-72
2022/01/01 01:26:48;;;;;;;22.27;12.20;;;14.90;99.90;;;;;;2089305;28;20025;-72
2022/01/01 01:27:50;;;;;;;19.90;11.57;;;14.90;99.90;;;;;;2089740;28;20025;-72
2022/01/01 01:28:51;;;;;;;21.30;12.25;;;14.90;99.90;;;;;;2088830;28;20013;-72
2022/01/01 01:29:52;;;;;;;19.42;11.70;;;14.90;99.90;;;;;;2081104;28;20018;-72
2022/01/01 01:30:52;;;;;;;18.50;9.95;;;14.90;99.90;;;;;;2077446;28;20025;-72
2022/01/01 01:31:53;;;;;;;22.45;11.45;;;15.00;99.90;;;;;;2086522;28;20017;-72
2022/01/01 01:32:54;;;;;;;21.00;11.23;;;15.00;99.90;;;;;;2088429;28;20502;-72
2022/01/01 01:33:54;;;;;;;28.40;12.15;;;15.00;99.90;;;;;;2079852;28;20020;-72
2022/01/01 01:34:55;;;;;;;22.42;10.82;;;15.00;99.90;;;;;;2080886;28;20029;-72
2022/01/01 01:35:55;;;;;;;20.00;11.55;;;15.00;99.90;;;;;;2081220;28;20041;-72
2022/01/01 01:36:56;;;;;;;20.75;11.85;;;15.00;99.90;;;;;;2081809;28;20049;-72
2022/01/01 01:37:56;;;;;;;22.77;11.85;;;15.00;99.90;;;;;;2085782;28;20021;-72
2022/01/01 01:38:57;;;;;;;19.60;11.52;;;15.00;99.90;;;;;;2082316;28;20032;-72
2022/01/01 01:39:58;;;;;;;20.90;11.63;;;15.00;99.90;;;;;;2081203;28;20100;-72
2022/01/01 01:40:59;;;;;;;18.23;10.68;;;15.00;99.90;;;;;;2081625;28;20126;-72
2022/01/01 01:41:59;;;;;;;19.48;12.18;;;15.00;99.90;;;;;;2089050;28;20033;-72
2022/01/01 01:43:06;;;;;;;18.60;11.35;;;15.00;99.90;;;;;;2088979;28;20122;-72
2022/01/01 01:44:33;;;;;;;18.30;11.65;;;15.00;99.90;;;;;;2081387;28;20031;-72
2022/01/01 01:45:33;;;;;;;19.88;12.35;;;15.00;99.90;;;;;;2080691;28;20100;-71
2022/01/01 01:46:34;;;;;;;22.80;12.05;;;14.90;99.90;;;;;;2083334;28;20045;-72
2022/01/01 01:47:37;;;;;;;22.15;12.32;;;14.90;99.90;;;;;;2089790;28;20021;-72
2022/01/01 01:48:38;;;;;;;19.67;11.93;;;14.90;99.90;;;;;;2089684;28;20491;-72
2022/01/01 01:49:39;;;;;;;17.83;11.50;;;14.90;99.90;;;;;;2089628;28;20483;-72
2022/01/01 01:50:39;;;;;;;21.02;11.75;;;14.90;99.90;;;;;;2088358;28;20377;-72
2022/01/01 01:51:40;;;;;;;23.25;12.27;;;15.00;99.90;;;;;;2081509;28;20026;-72
2022/01/01 01:52:45;;;;;;;21.00;11.98;;;14.90;99.90;;;;;;2080410;28;20033;-72
2022/01/01 01:53:46;;;;;;;19.73;10.60;;;15.00;99.90;;;;;;2082141;28;20018;-72
2022/01/01 01:54:47;;;;;;;19.10;11.32;;;14.90;99.90;;;;;;2087858;28;20025;-72
2022/01/01 01:55:48;;;;;;;20.23;11.00;;;15.00;99.90;;;;;;2088335;28;20021;-72
2022/01/01 01:56:53;;;;;;;21.60;10.52;;;14.90;99.90;;;;;;2083260;28;20036;-72
2022/01/01 01:57:54;;;;;;;25.65;12.23;;;14.90;99.90;;;;;;2084248;28;20025;-72
2022/01/01 01:58:54;;;;;;;17.70;10.68;;;14.90;99.90;;;;;;2097180;28;20020;-72
2022/01/01 01:59:55;;;;;;;18.77;10.25;;;14.90;99.90;;;;;;2089470;28;20472;-72
2022/01/01 02:02:07;;;;;;;22.33;11.10;;;14.90;99.90;;;;;;2087477;28;20029;-72
2022/01/01 02:03:10;;;;;;;23.38;11.15;;;14.90;99.90;;;;;;2082470;28;20363;-72
2022/01/01 02:04:10;;;;;;;24.55;11.02;;;14.90;99.90;;;;;;2094008;28;20025;-72
2022/01/01 02:05:11;;;;;;;21.98;10.80;;;14.90;99.90;;;;;;2088978;28;20031;-72
2022/01/01 02:06:12;;;;;;;20.10;10.35;;;14.90;99.90;;;;;;2081267;28;20026;-72
2022/01/01 02:07:12;;;;;;;20.65;10.00;;;14.90;99.90;;;;;;2081088;28;20025;-72
2022/01/01 02:08:24;;;;;;;19.42;9.93;;;14.90;99.90;;;;;;2082933;28;20105;-72
2022/01/01 02:09:25;;;;;;;20.08;9.75;;;14.90;99.90;;;;;;2078761;28;20076;-72
2022/01/01 02:10:26;;;;;;;17.45;9.88;;;14.90;99.90;;;;;;2080985;28;20040;-72
2022/01/01 02:11:27;;;;;;;17.17;10.40;;;14.90;99.90;;;;;;2079458;28;20434;-72
2022/01/01 02:12:28;;;;;;;19.95;9.68;;;14.90;99.90;;;;;;2081881;28;20071;-73
2022/01/01 02:13:37;;;;;;;28.05;11.38;;;14.90;99.90;;;;;;2081867;28;20076;-72
2022/01/01 02:17:59;;;;;;;20.52;9.70;;;14.90;99.90;;;;;;2081571;28;20025;-72
2022/01/01 02:19:00;;;;;;;18.85;9.70;;;14.90;99.90;;;;;;2085141;28;20037;-72
2022/01/01 02:20:14;;;;;;;19.95;10.25;;;14.90;99.90;;;;;;2082518;28;20093;-72
2022/01/01 02:21:16;;;;;;;21.67;9.48;;;14.90;99.90;;;;;;2075154;28;20037;-72
2022/01/01 02:22:17;;;;;;;15.88;9.85;;;14.90;99.90;;;;;;2076444;28;20057;-72
2022/01/01 02:23:22;;;;;;;16.75;9.88;;;14.90;99.90;;;;;;2080198;28;20064;-72
2022/01/01 02:24:24;;;;;;;20.65;11.15;;;14.90;99.90;;;;;;2085722;28;20030;-72
2022/01/01 02:25:24;;;;;;;17.27;11.43;;;14.90;99.90;;;;;;2077206;28;20025;-72
2022/01/01 02:26:32;;;;;;;24.15;11.57;;;14.90;99.90;;;;;;2076583;28;20056;-72
2022/01/01 02:27:36;;;;;;;20.27;11.10;;;14.90;99.90;;;;;;2079737;28;20029;-72
2022/01/01 02:28:37;;;;;;;21.98;11.85;;;14.90;99.90;;;;;;2077387;28;20104;-72
2022/01/01 02:29:38;;;;;;;18.33;10.05;;;14.90;99.90;;;;;;2078950;28;20022;-72
2022/01/01 02:30:38;;;;;;;17.77;10.30;;;14.90;99.90;;;;;;2077580;28;20022;-72
2022/01/01 02:31:39;;;;;;;19.65;10.38;;;14.90;99.90;;;;;;2079832;28;20168;-72
2022/01/01 02:32:40;;;;;;;16.58;10.00;;;14.90;99.90;;;;;;2085242;28;20547;-72
2022/01/01 02:33:44;;;;;;;17.95;10.43;;;14.90;99.90;;;;;;2081840;28;20028;-72
2022/01/01 02:34:44;;;;;;;18.15;9.93;;;14.90;99.90;;;;;;2076560;28;20017;-72
2022/01/01 02:35:45;;;;;;;21.42;10.82;;;14.90;99.90;;;;;;2081140;28;20040;-72
2022/01/01 02:36:46;;;;;;;17.20;9.60;;;14.80;99.90;;;;;;2090069;28;20492;-72
2022/01/01 02:37:46;;;;;;;20.65;10.80;;;14.90;99.90;;;;;;2097715;28;20090;-72
2022/01/01 02:38:47;;;;;;;19.02;10.75;;;14.90;99.90;;;;;;2088821;28;20472;-72
2022/01/01 02:39:50;;;;;;;18.98;10.45;;;14.90;99.90;;;;;;2081099;28;20037;-72
2022/01/01 02:40:50;;;;;;;19.58;10.32;;;14.90;99.90;;;;;;2079301;28;20018;-72
2022/01/01 02:41:53;;;;;;;17.60;10.50;;;14.90;99.90;;;;;;2080899;28;20029;-72
2022/01/01 02:42:55;;;;;;;18.10;10.63;;;14.80;99.90;;;;;;2081580;28;20028;-72
2022/01/01 02:43:56;;;;;;;21.58;10.80;;;14.90;99.90;;;;;;2080375;28;20072;-72
2022/01/01 02:44:59;;;;;;;22.70;10.27;;;14.90;99.90;;;;;;2084094;28;20017;-72
2022/01/01 02:46:00;;;;;;;21.23;11.20;;;14.80;99.90;;;;;;2082455;28;20079;-72
2022/01/01 02:47:01;;;;;;;22.90;10.68;;;14.90;99.90;;;;;;2080647;28;20025;-72
2022/01/01 02:48:01;;;;;;;20.90;11.02;;;14.80;99.90;;;;;;2081941;28;20373;-72
2022/01/01 02:49:03;;;;;;;23.23;11.43;;;14.80;99.90;;;;;;2080891;28;20056;-72
2022/01/01 02:50:04;;;;;;;19.38;10.45;;;14.90;99.90;;;;;;2072826;28;20053;-72
2022/01/01 02:51:05;;;;;;;21.75;10.77;;;14.80;99.90;;;;;;2081309;28;20026;-72
2022/01/01 02:52:06;;;;;;;18.98;9.57;;;14.90;99.90;;;;;;2081992;28;20100;-72
2022/01/01 02:53:13;;;;;;;24.33;11.30;;;14.90;99.90;;;;;;2082229;28;20088;-72
2022/01/01 02:54:14;;;;;;;19.33;11.07;;;14.90;99.90;;;;;;2081870;28;20037;-72
2022/01/01 02:55:14;;;;;;;22.25;11.50;;;14.80;99.90;;;;;;2082343;28;20112;-72
2022/01/01 02:56:15;;;;;;;19.05;11.05;;;14.80;99.90;;;;;;2075942;28;20030;-72
2022/01/01 02:57:16;;;;;;;21.30;11.18;;;14.80;99.90;;;;;;2080564;28;20029;-72
2022/01/01 02:58:17;;;;;;;25.05;10.75;;;14.90;99.90;;;;;;2085784;28;20017;-72
2022/01/01 02:59:17;;;;;;;20.42;11.23;;;14.90;99.90;;;;;;2080383;28;20036;-72
2022/01/01 03:00:18;;;;;;;19.42;11.73;;;14.90;99.90;;;;;;2079830;28;20079;-72
2022/01/01 03:01:19;;;;;;;17.38;10.48;;;14.80;99.90;;;;;;2077938;28;20105;-72
2022/01/01 03:02:19;;;;;;;19.42;10.98;;;14.80;99.90;;;;;;2077208;28;20029;-72
2022/01/01 03:03:20;;;;;;;21.67;12.35;;;14.80;99.90;;;;;;2074515;28;20100;-72
2022/01/01 03:04:20;;;;;;;20.67;11.55;;;14.90;99.90;;;;;;2077160;28;20088;-72
2022/01/01 03:05:21;;;;;;;22.10;11.63;;;14.90;99.90;;;;;;2079079;28;20021;-72
2022/01/01 03:06:22;;;;;;;21.58;11.88;;;14.90;99.90;;;;;;2084033;28;20089;-72
2022/01/01 03:07:22;;;;;;;21.38;11.68;;;14.80;99.90;;;;;;2088022;28;20078;-72
2022/01/01 03:08:23;;;;;;;16.98;10.88;;;14.80;99.90;;;;;;2090103;28;20078;-72
2022/01/01 03:09:24;;;;;;;23.20;12.15;;;14.80;99.90;;;;;;2082927;28;20026;-72
2022/01/01 03:10:25;;;;;;;18.98;11.10;;;14.80;99.90;;;;;;2073312;28;20014;-72
2022/01/01 03:11:25;;;;;;;19.80;11.02;;;14.80;99.90;;;;;;2085013;28;20542;-72
2022/01/01 03:12:26;;;;;;;20.38;10.50;;;14.80;99.90;;;;;;2091447;28;20511;-72
2022/01/01 03:13:26;;;;;;;23.17;11.98;;;14.80;99.90;;;;;;2097637;28;20028;-72
2022/01/01 03:14:27;;;;;;;21.20;12.43;;;14.90;99.90;;;;;;2089258;28;20028;-72
2022/01/01 03:15:27;;;;;;;22.65;11.55;;;14.80;99.90;;;;;;2089138;28;20040;-72
2022/01/01 03:16:28;;;;;;;22.33;11.98;;;14.90;99.90;;;;;;2097655;28;20070;-72
2022/01/01 03:17:29;;;;;;;19.70;11.00;;;14.80;99.90;;;;;;2092703;28;20437;-72
2022/01/01 03:18:29;;;;;;;17.30;11.63;;;14.80;99.90;;;;;;2081418;28;20389;-72
2022/01/01 03:19:30;;;;;;;19.88;12.25;;;14.80;99.90;;;;;;2088086;28;20032;-72
2022/01/01 03:20:31;;;;;;;25.77;11.90;;;14.90;99.90;;;;;;2089691;28;20385;-72
2022/01/01 03:21:31;;;;;;;22.27;11.55;;;14.80;99.90;;;;;;2089322;28;20021;-72
2022/01/01 03:22:32;;;;;;;21.10;11.48;;;14.90;99.90;;;;;;2089757;28;20023;-72
2022/01/01 03:23:33;;;;;;;22.25;11.10;;;14.90;99.90;;;;;;2084177;28;20408;-72
2022/01/01 03:24:33;;;;;;;18.00;11.30;;;14.80;99.90;;;;;;2081891;28;20079;-72
2022/01/01 03:25:34;;;;;;;22.90;12.15;;;14.80;99.90;;;;;;2081515;28;20021;-72
2022/01/01 03:26:34;;;;;;;23.33;12.27;;;14.80;99.90;;;;;;2081806;28;20021;-72
2022/01/01 03:27:35;;;;;;;23.98;11.52;;;14.80;99.90;;;;;;2080888;28;20026;-72
2022/01/01 03:28:35;;;;;;;20.25;11.52;;;14.90;99.90;;;;;;2072820;28;20026;-72
2022/01/01 03:29:36;;;;;;;23.20;11.90;;;14.90;99.90;;;;;;2076546;28;20097;-72
2022/01/01 03:30:37;;;;;;;23.73;11.35;;;14.80;99.90;;;;;;2084622;28;20032;-72
2022/01/01 03:31:37;;;;;;;18.85;10.93;;;14.80;99.90;;;;;;2089858;28;20025;-72
2022/01/01 03:32:38;;;;;;;17.90;10.25;;;14.80;99.90;;;;;;2081635;28;20466;-72
2022/01/01 03:33:38;;;;;;;20.50;12.10;;;14.80;99.90;;;;;;2085856;28;20033;-72
2022/01/01 03:34:39;;;;;;;20.23;11.23;;;14.80;99.90;;;;;;2089762;28;20060;-72
2022/01/01 03:35:39;;;;;;;21.15;11.10;;;14.80;99.90;;;;;;2081846;28;20464;-72
2022/01/01 03:36:40;;;;;;;18.05;11.30;;;14.80;99.90;;;;;;2087541;28;20020;-72
2022/01/01 03:37:40;;;;;;;20.77;12.18;;;14.80;99.90;;;;;;2091056;28;20025;-72
2022/01/01 03:38:41;;;;;;;19.67;11.27;;;14.80;99.90;;;;;;2077441;28;20445;-72
2022/01/01 03:39:42;;;;;;;22.58;12.55;;;14.80;99.90;;;;;;2073991;28;20026;-72
2022/01/01 03:40:43;;;;;;;21.42;12.18;;;14.80;99.90;;;;;;2081407;28;20029;-72
2022/01/01 03:41:43;;;;;;;19.98;11.80;;;14.80;99.90;;;;;;2081695;28;20021;-72
2022/01/01 03:42:44;;;;;;;19.80;11.40;;;14.80;99.90;;;;;;2081197;28;20102;-72
2022/01/01 03:43:45;;;;;;;24.10;11.95;;;14.80;99.90;;;;;;2081464;28;20096;-72
2022/01/01 03:44:46;;;;;;;25.02;13.23;;;14.80;99.90;;;;;;2080775;28;20029;-72
2022/01/01 03:45:46;;;;;;;19.15;11.70;;;14.90;99.90;;;;;;2081334;28;20482;-73
2022/01/01 03:46:47;;;;;;;23.33;12.48;;;14.80;99.90;;;;;;2093851;28;20025;-72
2022/01/01 03:47:48;;;;;;;23.75;13.02;;;14.80;99.90;;;;;;2097639;28;20508;-72
2022/01/01 03:48:48;;;;;;;19.00;11.90;;;14.80;99.90;;;;;;2089771;28;20082;-72
2022/01/01 03:49:52;;;;;;;19.80;12.85;;;14.80;99.90;;;;;;2089756;28;20021;-72
2022/01/01 03:50:52;;;;;;;25.42;13.10;;;14.80;99.90;;;;;;2089724;28;20111;-72
2022/01/01 03:51:53;;;;;;;22.80;13.18;;;14.80;99.90;;;;;;2081798;28;20038;-72
2022/01/01 03:52:53;;;;;;;23.55;12.85;;;14.80;99.90;;;;;;2082722;28;20029;-72
2022/01/01 03:53:54;;;;;;;22.73;12.00;;;14.80;99.90;;;;;;2089996;28;20029;-72
2022/01/01 03:54:54;;;;;;;22.15;12.48;;;14.80;99.90;;;;;;2089710;28;20017;-72
2022/01/01 03:55:55;;;;;;;21.50;12.93;;;14.80;99.90;;;;;;2083122;28;20021;-72
2022/01/01 03:56:56;;;;;;;21.90;12.68;;;14.80;99.90;;;;;;2081464;28;20033;-72
2022/01/01 03:57:56;;;;;;;22.73;13.20;;;14.80;99.90;;;;;;2084884;28;20021;-72
2022/01/01 03:58:57;;;;;;;20.02;12.60;;;14.80;99.90;;;;;;2089751;28;20025;-72
2022/01/01 03:59:57;;;;;;;20.35;12.65;;;14.80;99.90;;;;;;2089683;28;20028;-72
2022/01/01 04:00:58;;;;;;;23.52;13.27;;;14.80;99.90;;;;;;2089673;28;20526;-72
2022/01/01 04:01:58;;;;;;;21.65;12.65;;;14.80;99.90;;;;;;2086693;28;20140;-72
2022/01/01 04:03:10;;;;;;;22.33;12.50;;;14.80;99.90;;;;;;2081319;28;20096;-72
2022/01/01 04:04:10;;;;;;;19.83;12.77;;;14.80;99.90;;;;;;2074637;28;20030;-72
2022/01/01 04:05:11;;;;;;;17.17;11.63;;;14.80;99.90;;;;;;2080903;28;20033;-72
2022/01/01 04:06:11;;;;;;;27.17;12.23;;;14.80;99.90;;;;;;2085774;28;20686;-72
2022/01/01 04:07:12;;;;;;;21.60;13.02;;;14.80;99.90;;;;;;2080159;28;20030;-72
2022/01/01 04:08:13;;;;;;;19.92;12.45;;;14.80;99.90;;;;;;2081151;28;20033;-72
2022/01/01 04:09:14;;;;;;;21.25;11.95;;;14.90;99.90;;;;;;2080855;28;20053;-72
2022/01/01 04:10:15;;;;;;;23.92;12.98;;;14.80;99.90;;;;;;2079942;28;20085;-72
2022/01/01 04:11:15;;;;;;;21.38;12.40;;;14.80;99.90;;;;;;2079474;28;20021;-72
2022/01/01 04:12:16;;;;;;;23.10;13.02;;;14.90;99.90;;;;;;2082778;28;20044;-72
2022/01/01 04:13:16;;;;;;;21.08;11.73;;;14.90;99.90;;;;;;2089889;28;20099;-72
2022/01/01 04:14:17;;;;;;;23.10;13.40;;;14.90;99.90;;;;;;2089585;28;20064;-72
2022/01/01 04:15:18;;;;;;;21.55;12.13;;;14.80;99.90;;;;;;2089071;28;20115;-72
2022/01/01 04:16:19;;;;;;;21.77;12.25;;;14.80;99.90;;;;;;2088365;28;20555;-72
2022/01/01 04:17:20;;;;;;;24.13;12.90;;;14.80;99.90;;;;;;2080687;28;20425;-72
2022/01/01 04:18:38;;;;;;;18.30;11.35;;;14.90;99.90;;;;;;2086806;28;20052;-72
2022/01/01 04:19:42;;;;;;;22.23;12.48;;;14.80;99.90;;;;;;2080323;28;20121;-72
2022/01/01 04:20:45;;;;;;;23.65;12.32;;;14.80;99.90;;;;;;2084620;28;20104;-72
2022/01/01 04:21:45;;;;;;;22.45;13.32;;;14.80;99.90;;;;;;2089672;28;20023;-72
2022/01/01 04:22:46;;;;;;;22.60;12.85;;;14.80;99.90;;;;;;2089693;28;20021;-72
2022/01/01 04:23:46;;;;;;;23.98;12.55;;;14.90;99.90;;;;;;2089664;28;20032;-72
2022/01/01 04:24:47;;;;;;;24.75;13.50;;;14.80;99.90;;;;;;2089661;28;20434;-72
2022/01/01 04:25:47;;;;;;;24.75;14.13;;;14.80;99.90;;;;;;2089623;28;20036;-72
2022/01/01 04:26:48;;;;;;;20.42;12.55;;;14.80;99.90;;;;;;2083069;28;20024;-72
2022/01/01 04:27:50;;;;;;;21.35;12.55;;;14.90;99.90;;;;;;2089710;28;20120;-72
2022/01/01 04:28:51;;;;;;;24.58;12.07;;;14.90;99.90;;;;;;2089502;28;20100;-72
2022/01/01 04:29:52;;;;;;;24.45;12.38;;;14.90;99.90;;;;;;2076342;28;20021;-72
2022/01/01 04:30:53;;;;;;;23.33;12.10;;;14.80;99.90;;;;;;2079719;28;20017;-72
2022/01/01 04:31:54;;;;;;;23.52;12.57;;;14.90;99.90;;;;;;2081538;28;20026;-72
2022/01/01 04:32:56;;;;;;;23.55;12.00;;;14.80;99.90;;;;;;2080950;28;20017;-72
2022/01/01 04:33:56;;;;;;;22.02;12.13;;;14.80;99.90;;;;;;2081515;28;20037;-73
2022/01/01 04:34:57;;;;;;;23.50;12.85;;;14.80;99.90;;;;;;2082927;28;20032;-73
2022/01/01 04:35:57;;;;;;;20.25;11.98;;;14.90;99.90;;;;;;2083171;28;20346;-72
2022/01/01 04:37:05;;;;;;;23.23;12.88;;;14.80;99.90;;;;;;2081808;28;20028;-72
2022/01/01 04:38:11;;;;;;;21.08;12.57;;;14.80;99.90;;;;;;2090346;28;20048;-72
2022/01/01 04:39:11;;;;;;;19.05;11.52;;;14.80;99.90;;;;;;2089799;28;20063;-72
2022/01/01 04:40:12;;;;;;;19.98;11.60;;;14.80;99.90;;;;;;2086688;28;20393;-72
2022/01/01 04:41:15;;;;;;;21.75;12.10;;;14.80;99.90;;;;;;2091073;28;20070;-72
2022/01/01 04:42:16;;;;;;;20.25;12.05;;;14.80;99.90;;;;;;2091134;28;20025;-72
2022/01/01 04:43:16;;;;;;;26.10;13.88;;;14.80;99.90;;;;;;2088375;28;20064;-72
2022/01/01 04:44:17;;;;;;;21.52;12.65;;;14.80;99.90;;;;;;2076938;28;20438;-72
2022/01/01 04:45:17;;;;;;;21.00;11.63;;;14.80;99.90;;;;;;2086022;28;20028;-72
2022/01/01 04:46:18;;;;;;;20.92;11.55;;;14.80;99.90;;;;;;2086366;28;20018;-72
2022/01/01 04:47:19;;;;;;;19.63;11.43;;;14.80;99.90;;;;;;2082664;28;20536;-72
2022/01/01 04:48:19;;;;;;;26.75;12.98;;;14.80;99.90;;;;;;2086873;28;20020;-72
2022/01/01 04:49:21;;;;;;;19.83;11.95;;;14.90;99.90;;;;;;2090968;28;20029;-72
2022/01/01 04:50:22;;;;;;;21.58;12.50;;;14.80;99.90;;;;;;2090886;28;20049;-72
2022/01/01 04:51:22;;;;;;;19.67;11.98;;;14.90;99.90;;;;;;2090882;28;20029;-73
2022/01/01 04:52:23;;;;;;;18.98;11.90;;;14.80;99.90;;;;;;2091104;28;20057;-73
2022/01/01 04:53:24;;;;;;;21.48;11.75;;;14.80;99.90;;;;;;2090207;28;20048;-72
2022/01/01 04:54:24;;;;;;;21.48;12.48;;;14.80;99.90;;;;;;2090523;28;20500;-72
2022/01/01 04:55:25;;;;;;;24.52;12.20;;;14.90;99.90;;;;;;2088235;28;20029;-72
2022/01/01 04:56:28;;;;;;;23.73;12.30;;;14.80;99.90;;;;;;2087122;28;20021;-72
2022/01/01 04:57:30;;;;;;;20.08;11.65;;;14.80;99.90;;;;;;2086648;28;20028;-72
2022/01/01 04:58:30;;;;;;;19.23;11.27;;;14.80;99.90;;;;;;2090821;28;20033;-72
2022/01/01 04:59:31;;;;;;;24.08;11.50;;;14.80;99.90;;;;;;2090832;28;20033;-73
2022/01/01 05:00:32;;;;;;;19.13;11.02;;;14.80;99.90;;;;;;2089171;28;20021;-72
2022/01/01 05:01:32;;;;;;;22.45;11.90;;;14.90;99.90;;;;;;2073275;28;20052;-72
2022/01/01 05:02:33;;;;;;;19.67;10.93;;;14.90;99.90;;;;;;2080478;28;20014;-73
2022/01/01 05:03:33;;;;;;;20.08;11.65;;;14.90;99.90;;;;;;2080442;28;20072;-72
2022/01/01 05:04:36;;;;;;;22.35;11.93;;;14.80;99.90;;;;;;2077922;28;20532;-72
2022/01/01 05:05:36;;;;;;;19.17;11.18;;;14.90;99.90;;;;;;2081276;28;20036;-72
2022/01/01 05:06:40;;;;;;;19.88;11.43;;;14.90;99.90;;;;;;2074278;28;20025;-72
2022/01/01 05:07:43;;;;;;;21.38;11.57;;;14.90;99.90;;;;;;2081465;28;20361;-72
2022/01/01 05:08:43;;;;;;;18.80;10.77;;;14.80;99.90;;;;;;2091072;28;20400;-72
2022/01/01 05:09:44;;;;;;;21.13;11.57;;;14.80;99.90;;;;;;2090611;28;20362;-72
2022/01/01 05:10:44;;;;;;;18.45;10.95;;;14.80;99.90;;;;;;2090236;28;20017;-72
2022/01/01 05:11:47;;;;;;;16.85;10.23;;;14.90;99.90;;;;;;2090271;28;20070;-72
2022/01/01 05:12:47;;;;;;;19.45;10.73;;;14.90;99.90;;;;;;2090948;28;20025;-72
2022/01/01 05:13:48;;;;;;;19.95;10.73;;;14.90;99.90;;;;;;2090940;28;20053;-72
2022/01/01 05:14:48;;;;;;;18.13;10.13;;;14.80;99.90;;;;;;2090794;28;20082;-72
2022/01/01 05:15:50;;;;;;;19.35;10.65;;;14.80;99.90;;;;;;2085330;28;20021;-72